Time;durP1;ratioP1;P1;durP2;ratioP2;P2;SDS_P1;SDS_P2;PMS_P1;PMS_P2;Temp;Humidity;BMP_temperature;BMP_pressure;BME280_temperature;BME280_humidity;BME280_pressure;Samples;Min_cycle;Max_cycle;Signal;HPM_P1;HPM_P2
2024/01/18 00:00:17;;;;;;;10.27;5.90;;;;;0.40;98653.00;;;;4964671;28;20247;-73
2024/01/18 00:03:04;;;;;;;8.27;5.23;;;;;0.40;98645.00;;;;4958007;28;20232;-72
2024/01/18 00:05:51;;;;;;;7.27;5.37;;;;;0.40;98637.00;;;;4957709;28;20327;-72
2024/01/18 00:08:37;;;;;;;8.73;5.97;;;;;0.40;98653.00;;;;4963691;29;20238;-73
2024/01/18 00:11:25;;;;;;;10.10;6.80;;;;;0.50;98648.00;;;;4965900;29;20215;-73
2024/01/18 00:14:12;;;;;;;7.63;5.37;;;;;0.50;98666.00;;;;4962683;28;20259;-74
2024/01/18 00:17:06;;;;;;;5.27;4.37;;;;;0.40;98644.00;;;;4947961;28;20286;-72
2024/01/18 00:19:52;;;;;;;10.63;4.17;;;;;0.50;98654.00;;;;4951405;28;20248;-73
2024/01/18 00:22:38;;;;;;;8.67;6.03;;;;;0.50;98680.00;;;;4964118;28;20336;-73
2024/01/18 00:25:25;;;;;;;12.90;6.00;;;;;0.50;98659.00;;;;4960309;29;20281;-70
2024/01/18 00:28:12;;;;;;;6.47;4.83;;;;;0.50;98676.00;;;;4964646;29;20663;-71
2024/01/18 00:31:00;;;;;;;8.53;5.57;;;;;0.50;98664.00;;;;4958830;29;20229;-73
2024/01/18 00:33:46;;;;;;;6.90;5.67;;;;;0.50;98679.00;;;;4960648;28;20224;-72
2024/01/18 00:36:33;;;;;;;9.53;6.40;;;;;0.50;98678.00;;;;4962157;29;20240;-72
2024/01/18 00:39:20;;;;;;;9.37;5.80;;;;;0.50;98672.00;;;;4966030;29;20302;-73
2024/01/18 00:42:07;;;;;;;9.10;6.27;;;;;0.50;98674.00;;;;4958506;28;20240;-73
2024/01/18 00:44:55;;;;;;;11.37;6.03;;;;;0.50;98671.00;;;;4957427;29;20362;-70
2024/01/18 00:47:41;;;;;;;11.23;5.43;;;;;0.50;98679.00;;;;4964016;29;20252;-72
2024/01/18 00:50:28;;;;;;;7.63;5.40;;;;;0.40;98698.00;;;;4963065;29;20224;-73
2024/01/18 00:53:14;;;;;;;7.87;5.33;;;;;0.40;98675.00;;;;4955317;28;20277;-73
2024/01/18 00:56:00;;;;;;;8.83;6.53;;;;;0.40;98715.00;;;;4956344;29;20301;-70
2024/01/18 00:58:47;;;;;;;10.23;6.10;;;;;0.40;98715.00;;;;4953000;28;20228;-72
2024/01/18 01:01:35;;;;;;;6.57;5.33;;;;;0.30;98713.00;;;;4960851;29;20274;-73
2024/01/18 01:04:21;;;;;;;7.63;5.53;;;;;0.30;98671.00;;;;4954457;29;20231;-72
2024/01/18 01:07:08;;;;;;;9.67;5.03;;;;;0.20;98712.00;;;;4963295;29;20294;-72
2024/01/18 01:09:54;;;;;;;8.27;5.00;;;;;0.20;98727.00;;;;4944799;29;20260;-74
2024/01/18 01:12:40;;;;;;;8.33;5.90;;;;;0.20;98722.00;;;;4959784;29;20273;-71
2024/01/18 01:15:27;;;;;;;8.27;6.43;;;;;0.20;98720.00;;;;4961751;29;20235;-71
2024/01/18 01:18:14;;;;;;;12.87;5.47;;;;;0.20;98718.00;;;;4961839;28;20236;-73
2024/01/18 01:21:01;;;;;;;8.33;6.33;;;;;0.20;98744.00;;;;4961752;29;20259;-72
2024/01/18 01:23:48;;;;;;;7.43;6.10;;;;;0.20;98746.00;;;;4955786;28;20239;-73
2024/01/18 01:26:35;;;;;;;6.63;5.97;;;;;0.30;98734.00;;;;4956217;29;20292;-72
2024/01/18 01:29:22;;;;;;;10.40;6.33;;;;;0.20;98748.00;;;;4967770;29;20324;-70
2024/01/18 01:32:08;;;;;;;7.87;5.90;;;;;0.20;98732.00;;;;4958705;28;20229;-72
2024/01/18 01:34:56;;;;;;;9.30;7.03;;;;;0.20;98729.00;;;;4954492;29;20260;-71
2024/01/18 01:37:42;;;;;;;11.53;6.40;;;;;0.30;98732.00;;;;4958359;29;20252;-68
2024/01/18 01:40:28;;;;;;;14.13;6.80;;;;;0.20;98754.00;;;;4957699;29;20259;-73
2024/01/18 01:43:16;;;;;;;10.13;5.70;;;;;0.20;98761.00;;;;4963717;29;20284;-72
2024/01/18 01:46:03;;;;;;;14.23;5.83;;;;;0.20;98744.00;;;;4957529;29;20226;-73
2024/01/18 01:48:50;;;;;;;7.40;5.83;;;;;0.20;98757.00;;;;4961731;29;20253;-73
2024/01/18 01:51:48;;;;;;;9.93;6.47;;;;;0.20;98760.00;;;;4963280;29;20217;-72
2024/01/18 01:54:34;;;;;;;6.17;4.87;;;;;0.20;98773.00;;;;4965960;29;20390;-72
2024/01/18 01:57:21;;;;;;;7.00;5.77;;;;;0.20;98771.00;;;;4960324;29;20252;-72
2024/01/18 02:00:09;;;;;;;6.33;5.70;;;;;0.20;98765.00;;;;4960675;29;20292;-72
2024/01/18 02:02:56;;;;;;;6.07;5.17;;;;;0.20;98792.00;;;;4957252;28;20232;-72
2024/01/18 02:05:43;;;;;;;9.70;6.37;;;;;0.30;98792.00;;;;4959715;29;20337;-72
2024/01/18 02:08:31;;;;;;;4.83;4.23;;;;;0.20;98791.00;;;;4960329;29;20240;-73
2024/01/18 02:11:17;;;;;;;9.10;5.17;;;;;0.20;98781.00;;;;4965289;29;20248;-74
2024/01/18 02:14:04;;;;;;;11.50;7.13;;;;;0.10;98795.00;;;;4966821;28;20289;-71
2024/01/18 02:16:51;;;;;;;9.63;6.03;;;;;0.20;98748.00;;;;4954256;29;20260;-67
2024/01/18 02:19:37;;;;;;;7.67;5.70;;;;;0.20;98779.00;;;;4967001;28;20295;-70
2024/01/18 02:22:27;;;;;;;10.00;5.60;;;;;0.20;98784.00;;;;4959969;28;20285;-72
2024/01/18 02:25:28;;;;;;;9.03;5.57;;;;;0.20;98774.00;;;;4955938;29;20257;-74
2024/01/18 02:28:16;;;;;;;6.87;4.63;;;;;0.10;98783.00;;;;4958656;29;20229;-73
2024/01/18 02:31:03;;;;;;;8.20;5.20;;;;;0.10;98799.00;;;;4944480;28;20235;-70
2024/01/18 02:33:50;;;;;;;7.97;6.37;;;;;0.10;98798.00;;;;4958297;28;20223;-73
2024/01/18 02:36:37;;;;;;;8.23;6.00;;;;;0.20;98795.00;;;;4958266;29;20517;-74
2024/01/18 02:39:24;;;;;;;7.43;6.03;;;;;0.10;98791.00;;;;4960568;28;20229;-70
2024/01/18 02:42:12;;;;;;;10.53;7.67;;;;;0.20;98802.00;;;;4954358;28;20256;-74
2024/01/18 02:44:58;;;;;;;14.63;7.43;;;;;0.20;98820.00;;;;4946093;29;20228;-72
2024/01/18 02:47:44;;;;;;;6.67;5.77;;;;;0.10;98783.00;;;;4951105;29;20611;-70
2024/01/18 02:50:31;;;;;;;6.03;5.03;;;;;0.10;98824.00;;;;4956358;29;20217;-73
2024/01/18 02:53:20;;;;;;;7.43;5.77;;;;;0.10;98812.00;;;;4967435;28;20240;-71
2024/01/18 02:56:06;;;;;;;7.57;5.60;;;;;0.10;98801.00;;;;4958188;29;20233;-71
2024/01/18 02:58:53;;;;;;;7.40;5.73;;;;;0.10;98803.00;;;;4967579;29;20261;-73
2024/01/18 03:01:40;;;;;;;7.20;6.50;;;;;0.10;98813.00;;;;4966943;28;20243;-71
2024/01/18 03:04:26;;;;;;;8.80;6.30;;;;;0.10;98786.00;;;;4951571;28;20238;-73
2024/01/18 03:07:13;;;;;;;11.03;6.50;;;;;0.10;98779.00;;;;4960605;29;20237;-73
2024/01/18 03:09:59;;;;;;;10.23;5.97;;;;;0.10;98785.00;;;;4952470;29;20283;-69
2024/01/18 03:12:46;;;;;;;12.03;6.63;;;;;0.00;98808.00;;;;4962545;28;20280;-71
2024/01/18 03:15:34;;;;;;;12.43;7.47;;;;;0.00;98799.00;;;;4963588;28;20240;-70
2024/01/18 03:18:20;;;;;;;10.73;7.03;;;;;0.00;98794.00;;;;4963038;29;20300;-72
2024/01/18 03:21:07;;;;;;;11.70;6.40;;;;;0.00;98805.00;;;;4951893;29;20796;-71
2024/01/18 03:23:53;;;;;;;9.70;6.27;;;;;0.10;98773.00;;;;4964004;28;20511;-71
2024/01/18 03:26:40;;;;;;;9.20;5.87;;;;;0.00;98783.00;;;;4963528;29;20463;-71
2024/01/18 03:29:26;;;;;;;8.53;5.60;;;;;0.10;98791.00;;;;4960978;29;20219;-72
2024/01/18 03:32:14;;;;;;;7.93;5.97;;;;;0.10;98807.00;;;;4948790;28;20240;-71
2024/01/18 03:35:01;;;;;;;9.50;6.20;;;;;0.00;98808.00;;;;4954242;28;20277;-69
2024/01/18 03:37:48;;;;;;;13.47;6.43;;;;;0.00;98792.00;;;;4964276;29;20216;-72
2024/01/18 03:40:34;;;;;;;7.27;5.37;;;;;-0.10;98785.00;;;;4955688;28;20277;-73
2024/01/18 03:43:20;;;;;;;5.57;5.00;;;;;-0.10;98797.00;;;;4950641;28;20308;-73
2024/01/18 03:46:07;;;;;;;7.90;5.20;;;;;-0.10;98805.00;;;;4950299;29;20264;-73
2024/01/18 03:48:55;;;;;;;13.30;6.03;;;;;-0.10;98799.00;;;;4955570;28;20288;-70
2024/01/18 03:51:42;;;;;;;9.00;5.93;;;;;-0.10;98787.00;;;;4962169;28;20237;-70
2024/01/18 03:54:29;;;;;;;14.77;7.03;;;;;0.00;98815.00;;;;4957964;28;20225;-72
2024/01/18 03:57:15;;;;;;;8.13;6.43;;;;;-0.10;98810.00;;;;4942183;29;20227;-70
2024/01/18 04:00:03;;;;;;;7.73;5.90;;;;;-0.10;98809.00;;;;4956379;29;20659;-71
2024/01/18 04:02:49;;;;;;;8.53;6.60;;;;;-0.10;98792.00;;;;4957626;28;20297;-70
2024/01/18 04:05:39;;;;;;;10.10;7.17;;;;;-0.20;98810.00;;;;4945687;29;20246;-72
2024/01/18 04:08:26;;;;;;;7.63;6.90;;;;;-0.20;98821.00;;;;4948425;29;20265;-71
2024/01/18 04:11:12;;;;;;;12.73;6.93;;;;;-0.20;98818.00;;;;4962385;29;20235;-72
2024/01/18 04:13:59;;;;;;;12.20;5.53;;;;;-0.10;98803.00;;;;4954297;28;20235;-70
2024/01/18 04:16:45;;;;;;;6.47;5.13;;;;;-0.10;98805.00;;;;4956461;29;20223;-72
2024/01/18 04:19:32;;;;;;;7.27;5.60;;;;;-0.10;98820.00;;;;4958800;29;20255;-70
2024/01/18 04:22:22;;;;;;;10.00;5.67;;;;;-0.10;98819.00;;;;4948328;28;20244;-72
2024/01/18 04:25:09;;;;;;;8.77;5.50;;;;;0.00;98824.00;;;;4931074;29;20280;-68
2024/01/18 04:27:55;;;;;;;7.27;5.70;;;;;-0.10;98833.00;;;;4950506;29;20249;-69
2024/01/18 04:30:42;;;;;;;12.57;6.30;;;;;-0.10;98842.00;;;;4939702;29;20257;-69
2024/01/18 04:33:28;;;;;;;8.20;5.83;;;;;-0.10;98834.00;;;;4943678;28;20261;-71
2024/01/18 04:36:15;;;;;;;8.50;5.87;;;;;-0.20;98836.00;;;;4959981;29;20232;-70
2024/01/18 04:39:03;;;;;;;15.10;7.83;;;;;-0.20;98840.00;;;;4950148;29;20238;-71
2024/01/18 04:41:49;;;;;;;8.47;6.43;;;;;-0.20;98842.00;;;;4951062;28;20237;-69
2024/01/18 04:44:36;;;;;;;7.07;5.93;;;;;-0.20;98831.00;;;;4951510;29;20245;-71
2024/01/18 04:47:22;;;;;;;12.53;7.10;;;;;-0.20;98846.00;;;;4943978;29;20248;-70
2024/01/18 04:50:09;;;;;;;8.33;5.13;;;;;-0.20;98843.00;;;;4939526;29;20225;-66
2024/01/18 04:52:56;;;;;;;8.43;6.27;;;;;-0.30;98856.00;;;;4945352;28;20281;-71
2024/01/18 04:55:48;;;;;;;8.47;6.33;;;;;-0.30;98858.00;;;;4950735;29;20289;-73
2024/01/18 04:58:34;;;;;;;11.60;5.50;;;;;-0.30;98862.00;;;;4961771;29;20257;-71
2024/01/18 05:01:21;;;;;;;7.27;4.73;;;;;-0.30;98863.00;;;;4948869;29;21121;-70
2024/01/18 05:04:07;;;;;;;7.33;5.90;;;;;-0.30;98856.00;;;;4957098;28;20242;-71
2024/01/18 05:06:54;;;;;;;8.83;5.63;;;;;-0.30;98864.00;;;;4953166;29;20237;-71
2024/01/18 05:09:40;;;;;;;5.90;5.33;;;;;-0.30;98880.00;;;;4954896;29;20240;-74
2024/01/18 05:12:28;;;;;;;7.37;5.93;;;;;-0.30;98858.00;;;;4946037;28;20232;-74
2024/01/18 05:15:14;;;;;;;11.40;5.63;;;;;-0.30;98861.00;;;;4956189;29;20236;-71
2024/01/18 05:18:02;;;;;;;10.63;5.30;;;;;-0.40;98875.00;;;;4954104;29;20239;-72
2024/01/18 05:20:48;;;;;;;6.43;5.40;;;;;-0.40;98890.00;;;;4959036;29;20281;-71
2024/01/18 05:23:36;;;;;;;7.77;6.40;;;;;-0.40;98899.00;;;;4954925;28;20528;-70
2024/01/18 05:26:22;;;;;;;7.80;4.97;;;;;-0.40;98897.00;;;;4945690;29;20236;-72
2024/01/18 05:29:10;;;;;;;9.73;5.57;;;;;-0.50;98888.00;;;;4959295;29;20247;-72
2024/01/18 05:31:56;;;;;;;5.30;4.27;;;;;-0.50;98883.00;;;;4961989;29;20247;-69
2024/01/18 05:34:42;;;;;;;10.43;5.37;;;;;-0.50;98891.00;;;;4958575;29;20264;-72
2024/01/18 05:37:29;;;;;;;7.73;5.43;;;;;-0.60;98901.00;;;;4955783;29;20407;-70
2024/01/18 05:40:15;;;;;;;7.27;5.77;;;;;-0.60;98889.00;;;;4960648;29;20276;-72
2024/01/18 05:43:02;;;;;;;6.43;4.83;;;;;-0.50;98903.00;;;;4957985;28;20268;-71
2024/01/18 05:45:50;;;;;;;7.10;5.13;;;;;-0.60;98909.00;;;;4960400;29;20274;-71
2024/01/18 05:48:37;;;;;;;13.43;7.20;;;;;-0.60;98908.00;;;;4956826;29;20301;-71
2024/01/18 05:51:24;;;;;;;6.50;4.77;;;;;-0.60;98894.00;;;;4958963;29;20228;-73
2024/01/18 05:54:10;;;;;;;5.67;4.53;;;;;-0.60;98909.00;;;;4964304;29;20240;-69
2024/01/18 05:56:57;;;;;;;5.50;4.13;;;;;-0.70;98907.00;;;;4962456;29;20325;-70
2024/01/18 05:59:44;;;;;;;6.07;5.43;;;;;-0.60;98906.00;;;;4959957;29;20271;-71
2024/01/18 06:02:32;;;;;;;11.07;4.83;;;;;-0.70;98907.00;;;;4961771;29;20280;-73
2024/01/18 06:05:19;;;;;;;7.17;3.67;;;;;-0.80;98907.00;;;;4954295;29;20248;-73
2024/01/18 06:08:06;;;;;;;7.40;4.17;;;;;-0.80;98923.00;;;;4963128;29;20235;-71
2024/01/18 06:10:52;;;;;;;6.10;5.07;;;;;-0.80;98925.00;;;;4958369;29;20289;-73
2024/01/18 06:13:39;;;;;;;5.33;4.70;;;;;-0.80;98932.00;;;;4955610;29;20236;-74
2024/01/18 06:16:25;;;;;;;7.30;5.47;;;;;-0.80;98946.00;;;;4957943;29;20236;-74
2024/01/18 06:19:13;;;;;;;6.53;5.00;;;;;-0.90;98934.00;;;;4970937;29;20270;-72
2024/01/18 06:22:00;;;;;;;7.73;4.47;;;;;-1.10;98965.00;;;;4961788;29;20237;-72
2024/01/18 06:24:46;;;;;;;4.87;3.60;;;;;-1.00;98930.00;;;;4963522;29;20273;-70
2024/01/18 06:27:34;;;;;;;5.80;4.10;;;;;-0.90;98951.00;;;;4958323;29;20268;-73
2024/01/18 06:30:23;;;;;;;9.17;3.60;;;;;-1.10;98951.00;;;;4946008;29;20233;-72
2024/01/18 06:33:09;;;;;;;10.37;4.43;;;;;-1.10;98958.00;;;;4959775;28;20420;-73
2024/01/18 06:35:57;;;;;;;6.03;4.90;;;;;-1.10;98958.00;;;;4956699;29;20237;-73
2024/01/18 06:38:43;;;;;;;9.50;4.40;;;;;-1.20;98962.00;;;;4957881;29;20420;-73
2024/01/18 06:41:31;;;;;;;7.10;4.60;;;;;-1.10;98957.00;;;;4959321;29;20255;-73
2024/01/18 06:44:17;;;;;;;7.43;5.10;;;;;-1.20;98995.00;;;;4952057;29;20244;-76
2024/01/18 06:47:04;;;;;;;8.07;4.40;;;;;-1.30;98996.00;;;;4948857;29;20559;-72
2024/01/18 06:49:53;;;;;;;7.90;4.60;;;;;-1.30;98990.00;;;;4953911;29;20274;-71
2024/01/18 06:52:40;;;;;;;6.10;5.20;;;;;-1.40;99002.00;;;;4957417;28;20321;-72
2024/01/18 06:55:28;;;;;;;8.03;4.87;;;;;-1.40;99001.00;;;;4955122;29;20232;-72
2024/01/18 06:58:14;;;;;;;4.90;4.27;;;;;-1.60;99000.00;;;;4949562;28;23548;-72
2024/01/18 07:01:01;;;;;;;5.07;3.53;;;;;-1.50;99000.00;;;;4950665;28;20302;-75
2024/01/18 07:03:49;;;;;;;3.27;2.97;;;;;-1.60;99011.00;;;;4949708;29;20240;-73
2024/01/18 07:06:35;;;;;;;5.47;3.50;;;;;-1.60;99028.00;;;;4952973;29;20248;-76
2024/01/18 07:09:26;;;;;;;4.37;3.97;;;;;-1.60;99019.00;;;;4953840;29;20227;-76
2024/01/18 07:12:13;;;;;;;5.20;4.50;;;;;-1.60;99033.00;;;;4959856;28;20240;-75
2024/01/18 07:14:59;;;;;;;4.40;4.03;;;;;-1.50;99048.00;;;;4951627;28;20591;-76
2024/01/18 07:17:46;;;;;;;4.03;3.60;;;;;-1.50;99021.00;;;;4961639;29;20235;-75
2024/01/18 07:20:33;;;;;;;7.67;4.43;;;;;-1.60;99028.00;;;;4958639;28;20240;-76
2024/01/18 07:23:19;;;;;;;6.33;4.90;;;;;-1.60;99053.00;;;;4960788;28;20232;-75
2024/01/18 07:26:07;;;;;;;3.70;3.37;;;;;-1.70;99064.00;;;;4962304;28;20228;-77
2024/01/18 07:28:53;;;;;;;4.83;3.67;;;;;-1.70;99034.00;;;;4950135;28;20233;-77
2024/01/18 07:31:40;;;;;;;5.60;3.13;;;;;-1.60;99054.00;;;;4952376;28;21774;-76
2024/01/18 07:34:28;;;;;;;4.50;3.87;;;;;-1.70;99056.00;;;;4947436;28;20234;-75
2024/01/18 07:37:14;;;;;;;4.80;3.83;;;;;-1.60;99061.00;;;;4963660;28;20223;-76
2024/01/18 07:40:01;;;;;;;3.93;3.53;;;;;-1.60;99044.00;;;;4953684;28;20228;-74
2024/01/18 07:42:48;;;;;;;4.03;3.33;;;;;-1.70;99072.00;;;;4955806;28;20229;-70
2024/01/18 07:45:35;;;;;;;4.93;2.97;;;;;-1.60;99084.00;;;;4934861;29;20311;-70
2024/01/18 07:48:21;;;;;;;4.10;3.70;;;;;-1.60;99081.00;;;;4935855;29;20231;-70
2024/01/18 07:51:08;;;;;;;3.00;2.67;;;;;-1.70;99087.00;;;;4939077;29;20240;-70
2024/01/18 07:53:56;;;;;;;8.27;4.07;;;;;-1.60;99090.00;;;;4966742;28;20248;-75
2024/01/18 07:56:42;;;;;;;3.90;3.30;;;;;-1.60;99085.00;;;;4943370;28;20327;-75
2024/01/18 07:59:30;;;;;;;3.90;3.60;;;;;-1.60;99098.00;;;;4950945;28;20253;-76
2024/01/18 08:02:17;;;;;;;4.53;3.17;;;;;-1.60;99069.00;;;;4958890;28;20264;-73
2024/01/18 08:05:04;;;;;;;3.50;3.20;;;;;-1.60;99084.00;;;;4957159;28;20232;-74
2024/01/18 08:07:50;;;;;;;3.43;3.17;;;;;-1.70;99102.00;;;;4954984;28;20244;-75
2024/01/18 08:10:37;;;;;;;5.63;4.40;;;;;-1.90;99110.00;;;;4957814;28;20247;-74
2024/01/18 08:13:23;;;;;;;3.90;3.20;;;;;-1.70;99088.00;;;;4952436;28;20272;-76
2024/01/18 08:16:11;;;;;;;6.97;4.40;;;;;-1.60;99102.00;;;;4953220;28;20233;-74
2024/01/18 08:18:58;;;;;;;9.27;4.10;;;;;-1.60;99096.00;;;;4955585;28;20221;-75
2024/01/18 08:21:45;;;;;;;3.47;3.23;;;;;-1.50;99129.00;;;;4957592;28;20277;-76
2024/01/18 08:24:31;;;;;;;10.07;3.87;;;;;-1.50;99105.00;;;;4951848;28;20236;-76
2024/01/18 08:27:17;;;;;;;4.40;3.17;;;;;-1.40;99129.00;;;;4950892;29;20307;-72
2024/01/18 08:30:05;;;;;;;5.90;3.17;;;;;-1.40;99117.00;;;;4945866;29;20240;-70
2024/01/18 08:32:53;;;;;;;3.87;3.43;;;;;-1.50;99147.00;;;;4948232;28;20248;-73
2024/01/18 08:35:40;;;;;;;2.93;2.40;;;;;-1.50;99150.00;;;;4941393;29;20308;-71
2024/01/18 08:38:26;;;;;;;6.73;5.53;;;;;-1.30;99150.00;;;;4940855;28;20262;-68
2024/01/18 08:41:12;;;;;;;4.53;3.80;;;;;-1.30;99158.00;;;;4928237;29;20757;-71
2024/01/18 08:43:59;;;;;;;3.20;3.00;;;;;-1.20;99159.00;;;;4937168;29;20754;-72
2024/01/18 08:46:45;;;;;;;4.73;3.27;;;;;-1.10;99168.00;;;;4925183;29;20256;-69
2024/01/18 08:49:35;;;;;;;3.63;3.13;;;;;-1.00;99170.00;;;;4934709;29;20228;-71
2024/01/18 08:52:21;;;;;;;3.07;2.77;;;;;-1.10;99156.00;;;;4947695;28;20235;-73
2024/01/18 08:55:08;;;;;;;4.33;2.93;;;;;-1.10;99188.00;;;;4942142;29;20359;-71
2024/01/18 08:57:55;;;;;;;4.90;3.97;;;;;-1.10;99182.00;;;;4947292;29;20276;-71
2024/01/18 09:00:41;;;;;;;4.37;3.83;;;;;-1.10;99185.00;;;;4951417;29;20337;-71
2024/01/18 09:03:28;;;;;;;3.27;2.43;;;;;-1.10;99188.00;;;;4944111;29;21093;-70
2024/01/18 09:06:16;;;;;;;6.77;4.07;;;;;-1.00;99175.00;;;;4950548;29;20305;-71
2024/01/18 09:09:02;;;;;;;5.67;4.77;;;;;-1.00;99180.00;;;;4944757;29;20238;-72
2024/01/18 09:11:49;;;;;;;6.13;4.90;;;;;-1.00;99184.00;;;;4942195;29;20250;-70
2024/01/18 09:14:35;;;;;;;6.03;5.43;;;;;-1.00;99194.00;;;;4937214;29;20376;-71
2024/01/18 09:17:22;;;;;;;4.93;4.17;;;;;-0.80;99207.00;;;;4942001;29;20313;-70
2024/01/18 09:20:10;;;;;;;6.80;5.67;;;;;-0.70;99205.00;;;;4941265;29;20251;-72
2024/01/18 09:22:58;;;;;;;6.43;4.03;;;;;-0.60;99217.00;;;;4941345;28;20247;-70
2024/01/18 09:25:58;;;;;;;6.10;4.97;;;;;-0.50;99164.00;;;;4935218;29;20787;-70
2024/01/18 09:28:44;;;;;;;6.07;4.23;;;;;-0.40;99216.00;;;;4936156;29;20231;-74
2024/01/18 09:31:31;;;;;;;8.73;4.80;;;;;-0.30;99212.00;;;;4939460;29;20237;-71
2024/01/18 09:34:27;;;;;;;10.53;6.50;;;;;-0.20;99251.00;;;;4930168;29;20232;-70
2024/01/18 09:37:14;;;;;;;6.50;5.77;;;;;-0.20;99240.00;;;;4950145;29;20268;-73
2024/01/18 09:40:02;;;;;;;10.37;5.17;;;;;0.00;99243.00;;;;4929746;29;20233;-70
2024/01/18 09:42:50;;;;;;;13.10;6.60;;;;;-0.10;99245.00;;;;4921655;29;20241;-70
2024/01/18 09:45:39;;;;;;;10.03;5.33;;;;;0.00;99257.00;;;;4928239;29;20294;-69
2024/01/18 09:48:26;;;;;;;7.30;6.57;;;;;0.10;99258.00;;;;4921548;29;20237;-69
2024/01/18 09:51:15;;;;;;;11.10;6.77;;;;;0.10;99256.00;;;;4924121;29;20229;-69
2024/01/18 09:54:02;;;;;;;10.40;6.50;;;;;0.30;99271.00;;;;4926249;29;20233;-66
2024/01/18 09:56:53;;;;;;;5.83;4.63;;;;;0.40;99281.00;;;;4918449;29;20390;-68
2024/01/18 09:59:43;;;;;;;5.77;4.23;;;;;0.60;99278.00;;;;4916864;29;20366;-68
2024/01/18 10:02:30;;;;;;;6.23;4.67;;;;;0.70;99284.00;;;;4930023;29;20719;-69
2024/01/18 10:05:17;;;;;;;13.67;5.60;;;;;0.80;99294.00;;;;4932594;29;20236;-70
2024/01/18 10:08:04;;;;;;;8.10;5.07;;;;;0.90;99306.00;;;;4924932;29;20379;-67
2024/01/18 10:10:51;;;;;;;7.57;5.47;;;;;1.00;99298.00;;;;4927379;29;20320;-69
2024/01/18 10:13:53;;;;;;;8.80;5.90;;;;;1.10;99310.00;;;;4933711;29;20231;-69
2024/01/18 10:16:41;;;;;;;7.03;5.57;;;;;1.30;99309.00;;;;4928914;29;20241;-69
2024/01/18 10:19:28;;;;;;;5.27;4.00;;;;;1.40;99311.00;;;;4929096;29;20238;-67
2024/01/18 10:22:15;;;;;;;7.43;3.20;;;;;1.60;99316.00;;;;4920933;29;20256;-69
2024/01/18 10:25:02;;;;;;;4.77;4.10;;;;;1.70;99321.00;;;;4923706;29;20267;-67
2024/01/18 10:27:52;;;;;;;5.40;3.60;;;;;1.80;99326.00;;;;4929185;29;20231;-70
2024/01/18 10:30:39;;;;;;;3.40;3.10;;;;;1.90;99328.00;;;;4927828;29;20232;-67
2024/01/18 10:33:26;;;;;;;5.67;4.20;;;;;2.00;99330.00;;;;4927289;29;20260;-71
2024/01/18 10:36:13;;;;;;;5.93;2.80;;;;;2.20;99344.00;;;;4926148;29;20340;-73
2024/01/18 10:38:59;;;;;;;5.07;3.03;;;;;2.30;99356.00;;;;4924397;29;20316;-68
2024/01/18 10:41:46;;;;;;;5.30;3.90;;;;;2.40;99344.00;;;;4917833;29;20823;-71
2024/01/18 10:44:34;;;;;;;4.30;2.77;;;;;2.40;99347.00;;;;4931143;29;20637;-72
2024/01/18 10:47:23;;;;;;;5.47;2.77;;;;;2.60;99358.00;;;;4933918;29;20705;-72
2024/01/18 10:50:11;;;;;;;1.90;1.80;;;;;2.70;99342.00;;;;4929865;29;20456;-68
2024/01/18 10:52:58;;;;;;;2.60;1.97;;;;;2.80;99351.00;;;;4921309;29;20618;-71
2024/01/18 10:55:44;;;;;;;3.97;2.90;;;;;2.90;99357.00;;;;4925714;29;21040;-71
2024/01/18 10:58:31;;;;;;;3.63;2.33;;;;;3.00;99362.00;;;;4923196;29;20233;-72
2024/01/18 11:01:18;;;;;;;2.23;1.67;;;;;3.10;99362.00;;;;4923296;29;20237;-71
2024/01/18 11:04:07;;;;;;;3.20;2.00;;;;;3.10;99361.00;;;;4920848;29;20808;-71
2024/01/18 11:06:56;;;;;;;3.30;2.17;;;;;3.10;99356.00;;;;4928078;29;20232;-71
2024/01/18 11:09:42;;;;;;;3.17;2.13;;;;;3.30;99366.00;;;;4937264;29;20244;-70
2024/01/18 11:12:28;;;;;;;3.27;1.87;;;;;3.30;99361.00;;;;4928777;29;20292;-70
2024/01/18 11:15:17;;;;;;;1.83;1.70;;;;;3.40;99378.00;;;;4932080;29;20232;-71
2024/01/18 11:18:10;;;;;;;2.13;1.93;;;;;3.50;99376.00;;;;4932412;29;20729;-70
2024/01/18 11:21:08;;;;;;;1.47;1.33;;;;;3.60;99377.00;;;;4914387;29;20232;-69
2024/01/18 11:23:55;;;;;;;5.70;1.80;;;;;3.70;99373.00;;;;4923006;29;20427;-70
2024/01/18 11:26:41;;;;;;;1.60;1.50;;;;;3.80;99380.00;;;;4923340;29;20722;-70
2024/01/18 11:29:35;;;;;;;3.03;1.33;;;;;3.90;99380.00;;;;4929666;29;20238;-70
2024/01/18 11:32:23;;;;;;;3.63;1.90;;;;;3.90;99387.00;;;;4924540;29;20236;-70
2024/01/18 11:35:11;;;;;;;1.50;1.40;;;;;3.90;99392.00;;;;4925899;29;20237;-70
2024/01/18 11:38:20;;;;;;;1.50;1.40;;;;;4.00;99395.00;;;;4926450;29;20268;-71
2024/01/18 11:41:10;;;;;;;1.73;1.27;;;;;4.00;99398.00;;;;4927901;29;20236;-70
2024/01/18 11:43:58;;;;;;;2.17;1.30;;;;;4.00;99405.00;;;;4924894;29;20597;-69
2024/01/18 11:46:45;;;;;;;2.27;1.47;;;;;4.10;99404.00;;;;4930348;29;20232;-70
2024/01/18 11:49:32;;;;;;;1.23;1.13;;;;;4.20;99402.00;;;;4918341;29;20253;-72
2024/01/18 11:52:21;;;;;;;4.67;1.17;;;;;4.30;99400.00;;;;4934535;28;20242;-71
2024/01/18 11:55:11;;;;;;;1.57;1.17;;;;;4.40;99411.00;;;;4930565;29;20232;-71
2024/01/18 11:58:01;;;;;;;1.27;1.17;;;;;4.40;99409.00;;;;4928035;29;20236;-71
2024/01/18 12:00:48;;;;;;;2.37;1.10;;;;;4.40;99420.00;;;;4929058;29;20228;-71
2024/01/18 12:03:35;;;;;;;2.87;1.33;;;;;4.50;99422.00;;;;4933797;29;20729;-70
2024/01/18 12:06:23;;;;;;;1.47;1.37;;;;;4.50;99427.00;;;;4935727;29;20244;-70
2024/01/18 12:09:09;;;;;;;1.70;1.60;;;;;4.50;99427.00;;;;4927781;29;20631;-69
2024/01/18 12:11:59;;;;;;;1.30;1.20;;;;;4.50;99426.00;;;;4931501;29;20718;-70
2024/01/18 12:14:47;;;;;;;2.03;1.27;;;;;4.60;99436.00;;;;4924363;29;20244;-72
2024/01/18 12:17:34;;;;;;;1.27;1.17;;;;;4.60;99435.00;;;;4928438;29;20766;-71
2024/01/18 12:20:28;;;;;;;2.87;1.60;;;;;4.70;99442.00;;;;4934406;29;20235;-71
2024/01/18 12:23:17;;;;;;;2.10;1.60;;;;;4.70;99445.00;;;;4923384;29;20265;-71
2024/01/18 12:26:04;;;;;;;1.43;1.33;;;;;4.80;99453.00;;;;4932584;29;20725;-71
2024/01/18 12:28:53;;;;;;;1.73;1.27;;;;;4.70;99461.00;;;;4945204;29;20251;-70
2024/01/18 12:31:39;;;;;;;1.87;1.57;;;;;4.70;99456.00;;;;4934792;29;20292;-70
2024/01/18 12:34:26;;;;;;;1.87;1.10;;;;;4.70;99462.00;;;;4935504;29;20248;-68
2024/01/18 12:37:13;;;;;;;1.40;1.27;;;;;4.60;99466.00;;;;4918735;29;20361;-68
2024/01/18 12:39:59;;;;;;;1.40;1.30;;;;;4.60;99469.00;;;;4928929;29;20283;-69
2024/01/18 12:42:49;;;;;;;1.50;1.40;;;;;4.40;99462.00;;;;4939365;29;20304;-69
2024/01/18 12:45:36;;;;;;;1.43;1.27;;;;;4.50;99482.00;;;;4925010;29;20238;-70
2024/01/18 12:48:23;;;;;;;4.53;1.57;;;;;4.50;99490.00;;;;4922312;29;20610;-70
2024/01/18 12:51:09;;;;;;;1.63;1.50;;;;;4.50;99489.00;;;;4928853;29;20229;-69
2024/01/18 12:53:56;;;;;;;1.67;1.53;;;;;4.40;99499.00;;;;4935464;29;20240;-72
2024/01/18 12:56:43;;;;;;;2.43;1.97;;;;;4.30;99494.00;;;;4942791;29;20240;-70
2024/01/18 12:59:30;;;;;;;1.90;1.70;;;;;4.30;99491.00;;;;4939400;29;20235;-70
2024/01/18 13:02:25;;;;;;;1.57;1.20;;;;;4.20;99490.00;;;;4931433;29;20257;-70
2024/01/18 13:05:16;;;;;;;0.87;0.87;;;;;4.30;99492.00;;;;4933361;29;20711;-70
2024/01/18 13:08:02;;;;;;;1.83;1.63;;;;;4.30;99499.00;;;;4932381;29;20248;-71
2024/01/18 13:10:48;;;;;;;2.70;1.37;;;;;4.20;99509.00;;;;4926030;29;20241;-73
2024/01/18 13:13:35;;;;;;;2.27;1.17;;;;;4.10;99507.00;;;;4924786;29;20705;-72
2024/01/18 13:16:23;;;;;;;1.30;1.20;;;;;4.10;99513.00;;;;4920551;29;20224;-72
2024/01/18 13:19:16;;;;;;;4.93;1.23;;;;;4.00;99525.00;;;;4920853;29;20237;-70
2024/01/18 13:22:03;;;;;;;1.40;1.07;;;;;4.10;99529.00;;;;4918634;29;20224;-73
2024/01/18 13:24:51;;;;;;;1.40;1.17;;;;;4.20;99542.00;;;;4923491;29;20249;-71
2024/01/18 13:27:37;;;;;;;1.50;1.40;;;;;4.20;99550.00;;;;4917537;29;20349;-72
2024/01/18 13:30:23;;;;;;;2.47;0.97;;;;;4.20;99552.00;;;;4923834;29;20247;-71
2024/01/18 13:33:10;;;;;;;1.60;1.23;;;;;4.20;99554.00;;;;4924886;29;20232;-71
2024/01/18 13:35:58;;;;;;;1.07;1.00;;;;;4.30;99555.00;;;;4932945;29;20228;-72
2024/01/18 13:38:45;;;;;;;1.10;1.00;;;;;4.30;99565.00;;;;4923057;29;20285;-71
2024/01/18 13:41:32;;;;;;;1.80;1.10;;;;;4.30;99569.00;;;;4923319;29;20233;-72
2024/01/18 13:44:18;;;;;;;1.00;1.00;;;;;4.30;99574.00;;;;4916822;29;20299;-74
2024/01/18 13:47:05;;;;;;;1.40;1.20;;;;;4.40;99579.00;;;;4923812;29;20754;-72
2024/01/18 13:49:51;;;;;;;1.87;0.90;;;;;4.40;99578.00;;;;4926950;29;20655;-72
2024/01/18 13:52:39;;;;;;;1.23;1.10;;;;;4.40;99602.00;;;;4920106;29;20236;-71
2024/01/18 13:55:26;;;;;;;1.17;1.10;;;;;4.50;99603.00;;;;4920701;29;20256;-71
2024/01/18 13:58:12;;;;;;;8.87;1.73;;;;;4.60;99603.00;;;;4926120;29;20300;-74
2024/01/18 14:00:59;;;;;;;4.87;2.50;;;;;4.70;99608.00;;;;4924584;29;20241;-72